Maumee River (Ohio), Antwerp (04183500)

StateOhioCurrentGood (759 cfs)
RiverMaumee RiverFlood - The river is flooding. Obstacles can be treacherous or deadly. The river should be avoided at this stage for casual trips and definitely for the inexperienced. Trips should be attempted only with protective gear and equipment.Flood(none)
Updated2019-11-21 20:00 (1 hour ago)High - The river is high and potentially dangerous, especially for the young and / or inexperienced. Normal stream obstacles are sometimes difficult to navigate. Extended distances can be attempted, but canoe travel may not be advisable.High(none)
Discharge759 cfs (median: 394 cfs)Good - Conditions are ideal for a canoe or kayak. Boats typically will drag on fewer than one-quarter of riffles, if at all, and portages are unnecessary or rare. Normal float lengths can be attempted without a problem.Good200
Height7.46 feetLow - River is low but can still be floated. Some riffles are okay but most come with significant dragging and might need a portage. Float lengths should be reduced to accommodate low flow, dragging, and portages.Low(none)
TrendFalling (falling over 24 hours)Poor - River is too low to float comfortably. Most or all riffles will drag or must be portaged and some obstacles (such as slick shelf rock) cause undue problems. Avoid the river at this stage for casual paddling trips.Poor(none)
USGSExternal icon USGS Site for Antwerp (04183500)LocationExternal icon Google Maps

Trending Data

Plot Image
ObservationHeightDischargeMaximum
Discharge
Minimum
Discharge
Mean
Discharge
P05P10P20P25P50
(Median)
P75P80P90P95
2019-11-21 20:00 7.46 759 10000 (1922) 120 (1964) 1330 139 173 210 220 394 1570 2090 4020 8370
2019-11-21 19:00 7.50 783 10000 (1922) 120 (1964) 1330 139 173 210 220 394 1570 2090 4020 8370
2019-11-21 18:00 7.53 798 10000 (1922) 120 (1964) 1330 139 173 210 220 394 1570 2090 4020 8370
2019-11-21 17:00 7.57 818 10000 (1922) 120 (1964) 1330 139 173 210 220 394 1570 2090 4020 8370
2019-11-21 16:00 7.62 841 10000 (1922) 120 (1964) 1330 139 173 210 220 394 1570 2090 4020 8370
2019-11-21 15:00 7.65 860 10000 (1922) 120 (1964) 1330 139 173 210 220 394 1570 2090 4020 8370
2019-11-21 14:00 7.70 882 10000 (1922) 120 (1964) 1330 139 173 210 220 394 1570 2090 4020 8370
2019-11-21 13:00 7.74 907 10000 (1922) 120 (1964) 1330 139 173 210 220 394 1570 2090 4020 8370
2019-11-21 12:00 7.78 925 10000 (1922) 120 (1964) 1330 139 173 210 220 394 1570 2090 4020 8370
2019-11-21 11:00 7.82 949 10000 (1922) 120 (1964) 1330 139 173 210 220 394 1570 2090 4020 8370
2019-11-21 10:00 7.86 970 10000 (1922) 120 (1964) 1330 139 173 210 220 394 1570 2090 4020 8370
2019-11-21 09:00 7.90 991 10000 (1922) 120 (1964) 1330 139 173 210 220 394 1570 2090 4020 8370
2019-11-21 08:00 7.94 1010 10000 (1922) 120 (1964) 1330 139 173 210 220 394 1570 2090 4020 8370
2019-11-21 07:00 7.98 1030 10000 (1922) 120 (1964) 1330 139 173 210 220 394 1570 2090 4020 8370
2019-11-21 06:00 8.01 1050 10000 (1922) 120 (1964) 1330 139 173 210 220 394 1570 2090 4020 8370
2019-11-21 05:00 8.02 1050 10000 (1922) 120 (1964) 1330 139 173 210 220 394 1570 2090 4020 8370
2019-11-21 04:00 8.03 1060 10000 (1922) 120 (1964) 1330 139 173 210 220 394 1570 2090 4020 8370
2019-11-21 03:00 8.02 1050 10000 (1922) 120 (1964) 1330 139 173 210 220 394 1570 2090 4020 8370
2019-11-21 02:00 8.00 1040 10000 (1922) 120 (1964) 1330 139 173 210 220 394 1570 2090 4020 8370
2019-11-21 01:00 7.96 1020 10000 (1922) 120 (1964) 1330 139 173 210 220 394 1570 2090 4020 8370
2019-11-21 00:00 7.90 989 10000 (1922) 120 (1964) 1330 139 173 210 220 394 1570 2090 4020 8370
2019-11-20 23:00 7.82 949 10500 (1970) 106 (1954) 1320 132 157 198 220 403 1580 2120 3920 6890
2019-11-20 22:00 7.74 906 10500 (1970) 106 (1954) 1320 132 157 198 220 403 1580 2120 3920 6890
2019-11-20 21:00 7.65 860 10500 (1970) 106 (1954) 1320 132 157 198 220 403 1580 2120 3920 6890
2019-11-20 20:00 7.58 820 10500 (1970) 106 (1954) 1320 132 157 198 220 403 1580 2120 3920 6890
2019-11-20 19:00 7.51 788 10500 (1970) 106 (1954) 1320 132 157 198 220 403 1580 2120 3920 6890
2019-11-20 18:00 7.47 768 10500 (1970) 106 (1954) 1320 132 157 198 220 403 1580 2120 3920 6890
2019-11-20 17:00 7.44 753 10500 (1970) 106 (1954) 1320 132 157 198 220 403 1580 2120 3920 6890
2019-11-20 16:00 7.42 742 10500 (1970) 106 (1954) 1320 132 157 198 220 403 1580 2120 3920 6890
2019-11-20 15:00 7.40 730 10500 (1970) 106 (1954) 1320 132 157 198 220 403 1580 2120 3920 6890
2019-11-20 14:00 7.37 717 10500 (1970) 106 (1954) 1320 132 157 198 220 403 1580 2120 3920 6890
2019-11-20 13:00 7.34 702 10500 (1970) 106 (1954) 1320 132 157 198 220 403 1580 2120 3920 6890
2019-11-20 12:00 7.30 685 10500 (1970) 106 (1954) 1320 132 157 198 220 403 1580 2120 3920 6890
2019-11-20 11:00 7.26 666 10500 (1970) 106 (1954) 1320 132 157 198 220 403 1580 2120 3920 6890
2019-11-20 10:00 7.22 645 10500 (1970) 106 (1954) 1320 132 157 198 220 403 1580 2120 3920 6890
2019-11-20 09:00 7.17 624 10500 (1970) 106 (1954) 1320 132 157 198 220 403 1580 2120 3920 6890
2019-11-20 08:00 7.12 603 10500 (1970) 106 (1954) 1320 132 157 198 220 403 1580 2120 3920 6890
2019-11-20 07:00 7.08 582 10500 (1970) 106 (1954) 1320 132 157 198 220 403 1580 2120 3920 6890
2019-11-20 06:00 7.03 562 10500 (1970) 106 (1954) 1320 132 157 198 220 403 1580 2120 3920 6890
2019-11-20 05:00 6.99 544 10500 (1970) 106 (1954) 1320 132 157 198 220 403 1580 2120 3920 6890
2019-11-20 04:00 6.95 528 10500 (1970) 106 (1954) 1320 132 157 198 220 403 1580 2120 3920 6890
2019-11-20 03:00 6.92 512 10500 (1970) 106 (1954) 1320 132 157 198 220 403 1580 2120 3920 6890
2019-11-20 02:00 6.88 499 10500 (1970) 106 (1954) 1320 132 157 198 220 403 1580 2120 3920 6890
2019-11-20 01:00 6.86 487 10500 (1970) 106 (1954) 1320 132 157 198 220 403 1580 2120 3920 6890
2019-11-20 00:00 6.83 478 10500 (1970) 106 (1954) 1320 132 157 198 220 403 1580 2120 3920 6890
2019-11-19 23:00 6.82 472 8510 (1970) 99 (1954) 1210 119 152 197 208 405 890 2040 4660 5780
2019-11-19 22:00 6.80 466 8510 (1970) 99 (1954) 1210 119 152 197 208 405 890 2040 4660 5780
2019-11-19 21:00 6.80 464 8510 (1970) 99 (1954) 1210 119 152 197 208 405 890 2040 4660 5780
2019-11-19 20:00 6.80 466 8510 (1970) 99 (1954) 1210 119 152 197 208 405 890 2040 4660 5780
2019-11-19 19:00 6.81 470 8510 (1970) 99 (1954) 1210 119 152 197 208 405 890 2040 4660 5780
2019-11-19 18:00 6.83 476 8510 (1970) 99 (1954) 1210 119 152 197 208 405 890 2040 4660 5780
2019-11-19 17:00 6.85 484 8510 (1970) 99 (1954) 1210 119 152 197 208 405 890 2040 4660 5780
2019-11-19 16:00 6.88 496 8510 (1970) 99 (1954) 1210 119 152 197 208 405 890 2040 4660 5780
2019-11-19 15:00 6.91 508 8510 (1970) 99 (1954) 1210 119 152 197 208 405 890 2040 4660 5780
2019-11-19 14:00 6.94 522 8510 (1970) 99 (1954) 1210 119 152 197 208 405 890 2040 4660 5780
2019-11-19 13:00 6.97 537 8510 (1970) 99 (1954) 1210 119 152 197 208 405 890 2040 4660 5780
2019-11-19 12:00 7.00 550 8510 (1970) 99 (1954) 1210 119 152 197 208 405 890 2040 4660 5780
2019-11-19 11:00 7.04 565 8510 (1970) 99 (1954) 1210 119 152 197 208 405 890 2040 4660 5780
2019-11-19 10:00 7.07 577 8510 (1970) 99 (1954) 1210 119 152 197 208 405 890 2040 4660 5780
2019-11-19 09:00 7.09 586 8510 (1970) 99 (1954) 1210 119 152 197 208 405 890 2040 4660 5780
2019-11-19 08:00 7.11 595 8510 (1970) 99 (1954) 1210 119 152 197 208 405 890 2040 4660 5780
2019-11-19 07:00 7.13 604 8510 (1970) 99 (1954) 1210 119 152 197 208 405 890 2040 4660 5780
2019-11-19 06:00 7.14 609 8510 (1970) 99 (1954) 1210 119 152 197 208 405 890 2040 4660 5780
2019-11-19 05:00 7.15 613 8510 (1970) 99 (1954) 1210 119 152 197 208 405 890 2040 4660 5780
2019-11-19 04:00 7.16 617 8510 (1970) 99 (1954) 1210 119 152 197 208 405 890 2040 4660 5780
2019-11-19 03:00 7.16 620 8510 (1970) 99 (1954) 1210 119 152 197 208 405 890 2040 4660 5780
2019-11-19 02:00 7.17 623 8510 (1970) 99 (1954) 1210 119 152 197 208 405 890 2040 4660 5780
2019-11-19 01:00 7.17 625 8510 (1970) 99 (1954) 1210 119 152 197 208 405 890 2040 4660 5780
2019-11-19 00:00 7.18 629 8510 (1970) 99 (1954) 1210 119 152 197 208 405 890 2040 4660 5780
2019-11-18 23:00 7.19 631 9040 (1973) 109 (1964) 1060 131 166 204 224 414 953 1770 2960 5550
2019-11-18 22:00 7.20 635 9040 (1973) 109 (1964) 1060 131 166 204 224 414 953 1770 2960 5550
2019-11-18 21:00 7.20 639 9040 (1973) 109 (1964) 1060 131 166 204 224 414 953 1770 2960 5550
2019-11-18 20:00 7.21 642 9040 (1973) 109 (1964) 1060 131 166 204 224 414 953 1770 2960 5550
2019-11-18 19:00 7.21 643 9040 (1973) 109 (1964) 1060 131 166 204 224 414 953 1770 2960 5550
2019-11-18 18:00 7.22 645 9040 (1973) 109 (1964) 1060 131 166 204 224 414 953 1770 2960 5550
2019-11-18 17:00 7.22 647 9040 (1973) 109 (1964) 1060 131 166 204 224 414 953 1770 2960 5550
2019-11-18 15:45 7.23 650 9040 (1973) 109 (1964) 1060 131 166 204 224 414 953 1770 2960 5550
2019-11-18 15:00 7.23 652 9040 (1973) 109 (1964) 1060 131 166 204 224 414 953 1770 2960 5550
2019-11-18 14:00 7.24 653 9040 (1973) 109 (1964) 1060 131 166 204 224 414 953 1770 2960 5550
2019-11-18 13:00 7.24 654 9040 (1973) 109 (1964) 1060 131 166 204 224 414 953 1770 2960 5550
2019-11-18 12:00 7.24 655 9040 (1973) 109 (1964) 1060 131 166 204 224 414 953 1770 2960 5550
2019-11-18 11:00 7.24 654 9040 (1973) 109 (1964) 1060 131 166 204 224 414 953 1770 2960 5550
2019-11-18 10:00 7.24 653 9040 (1973) 109 (1964) 1060 131 166 204 224 414 953 1770 2960 5550
2019-11-18 09:00 7.23 652 9040 (1973) 109 (1964) 1060 131 166 204 224 414 953 1770 2960 5550
2019-11-18 08:00 7.23 651 9040 (1973) 109 (1964) 1060 131 166 204 224 414 953 1770 2960 5550
2019-11-18 07:00 7.23 651 9040 (1973) 109 (1964) 1060 131 166 204 224 414 953 1770 2960 5550
2019-11-18 06:00 7.23 652 9040 (1973) 109 (1964) 1060 131 166 204 224 414 953 1770 2960 5550
2019-11-18 05:00 7.23 653 9040 (1973) 109 (1964) 1060 131 166 204 224 414 953 1770 2960 5550
2019-11-18 04:00 7.24 656 9040 (1973) 109 (1964) 1060 131 166 204 224 414 953 1770 2960 5550
2019-11-18 03:00 7.25 659 9040 (1973) 109 (1964) 1060 131 166 204 224 414 953 1770 2960 5550
2019-11-18 02:00 7.25 661 9040 (1973) 109 (1964) 1060 131 166 204 224 414 953 1770 2960 5550
2019-11-18 01:00 7.26 667 9040 (1973) 109 (1964) 1060 131 166 204 224 414 953 1770 2960 5550
2019-11-18 00:00 7.27 671 9040 (1973) 109 (1964) 1060 131 166 204 224 414 953 1770 2960 5550
2019-11-17 23:00 7.28 677 10700 (1973) 91 (1964) 1050 108 177 206 213 378 878 1370 3030 6180
2019-11-17 22:00 7.30 681 10700 (1973) 91 (1964) 1050 108 177 206 213 378 878 1370 3030 6180
2019-11-17 21:00 7.30 684 10700 (1973) 91 (1964) 1050 108 177 206 213 378 878 1370 3030 6180
2019-11-17 20:00 7.31 689 10700 (1973) 91 (1964) 1050 108 177 206 213 378 878 1370 3030 6180
2019-11-17 19:00 7.32 693 10700 (1973) 91 (1964) 1050 108 177 206 213 378 878 1370 3030 6180
2019-11-17 18:00 7.32 695 10700 (1973) 91 (1964) 1050 108 177 206 213 378 878 1370 3030 6180
2019-11-17 17:00 7.33 697 10700 (1973) 91 (1964) 1050 108 177 206 213 378 878 1370 3030 6180
2019-11-17 16:00 7.34 700 10700 (1973) 91 (1964) 1050 108 177 206 213 378 878 1370 3030 6180
2019-11-17 15:00 7.34 701 10700 (1973) 91 (1964) 1050 108 177 206 213 378 878 1370 3030 6180
2019-11-17 14:00 7.34 702 10700 (1973) 91 (1964) 1050 108 177 206 213 378 878 1370 3030 6180
2019-11-17 13:00 7.34 702 10700 (1973) 91 (1964) 1050 108 177 206 213 378 878 1370 3030 6180
2019-11-17 12:00 7.34 704 10700 (1973) 91 (1964) 1050 108 177 206 213 378 878 1370 3030 6180
2019-11-17 11:00 7.34 702 10700 (1973) 91 (1964) 1050 108 177 206 213 378 878 1370 3030 6180
2019-11-17 10:00 7.34 702 10700 (1973) 91 (1964) 1050 108 177 206 213 378 878 1370 3030 6180
2019-11-17 09:00 7.34 700 10700 (1973) 91 (1964) 1050 108 177 206 213 378 878 1370 3030 6180
2019-11-17 08:00 7.33 698 10700 (1973) 91 (1964) 1050 108 177 206 213 378 878 1370 3030 6180
2019-11-17 07:00 7.33 696 10700 (1973) 91 (1964) 1050 108 177 206 213 378 878 1370 3030 6180
2019-11-17 06:00 7.32 694 10700 (1973) 91 (1964) 1050 108 177 206 213 378 878 1370 3030 6180
2019-11-17 05:00 7.32 692 10700 (1973) 91 (1964) 1050 108 177 206 213 378 878 1370 3030 6180
2019-11-17 04:00 7.32 691 10700 (1973) 91 (1964) 1050 108 177 206 213 378 878 1370 3030 6180
2019-11-17 03:00 7.31 690 10700 (1973) 91 (1964) 1050 108 177 206 213 378 878 1370 3030 6180
2019-11-17 02:00 7.31 689 10700 (1973) 91 (1964) 1050 108 177 206 213 378 878 1370 3030 6180
2019-11-17 01:00 7.31 690 10700 (1973) 91 (1964) 1050 108 177 206 213 378 878 1370 3030 6180
2019-11-17 00:00 7.31 690 10700 (1973) 91 (1964) 1050 108 177 206 213 378 878 1370 3030 6180
2019-11-16 22:45 7.32 692 12100 (1973) 108 (1954) 1060 124 148 192 208 359 828 959 3460 5300
2019-11-16 22:00 7.32 694 12100 (1973) 108 (1954) 1060 124 148 192 208 359 828 959 3460 5300
2019-11-16 21:00 7.32 694 12100 (1973) 108 (1954) 1060 124 148 192 208 359 828 959 3460 5300
2019-11-16 20:00 7.32 695 12100 (1973) 108 (1954) 1060 124 148 192 208 359 828 959 3460 5300
2019-11-16 19:00 7.33 697 12100 (1973) 108 (1954) 1060 124 148 192 208 359 828 959 3460 5300
2019-11-16 18:00 7.33 698 12100 (1973) 108 (1954) 1060 124 148 192 208 359 828 959 3460 5300
2019-11-16 17:00 7.33 699 12100 (1973) 108 (1954) 1060 124 148 192 208 359 828 959 3460 5300
2019-11-16 16:00 7.33 698 12100 (1973) 108 (1954) 1060 124 148 192 208 359 828 959 3460 5300
2019-11-16 15:00 7.34 700 12100 (1973) 108 (1954) 1060 124 148 192 208 359 828 959 3460 5300
2019-11-16 14:00 7.33 698 12100 (1973) 108 (1954) 1060 124 148 192 208 359 828 959 3460 5300
2019-11-16 13:00 7.34 702 12100 (1973) 108 (1954) 1060 124 148 192 208 359 828 959 3460 5300
2019-11-16 12:00 7.33 699 12100 (1973) 108 (1954) 1060 124 148 192 208 359 828 959 3460 5300
2019-11-16 11:00 7.33 700 12100 (1973) 108 (1954) 1060 124 148 192 208 359 828 959 3460 5300
2019-11-16 10:00 7.33 700 12100 (1973) 108 (1954) 1060 124 148 192 208 359 828 959 3460 5300
2019-11-16 09:00 7.34 701 12100 (1973) 108 (1954) 1060 124 148 192 208 359 828 959 3460 5300
2019-11-16 08:00 7.34 702 12100 (1973) 108 (1954) 1060 124 148 192 208 359 828 959 3460 5300
2019-11-16 07:00 7.34 703 12100 (1973) 108 (1954) 1060 124 148 192 208 359 828 959 3460 5300
2019-11-16 06:00 7.34 704 12100 (1973) 108 (1954) 1060 124 148 192 208 359 828 959 3460 5300
2019-11-16 05:00 7.35 706 12100 (1973) 108 (1954) 1060 124 148 192 208 359 828 959 3460 5300
2019-11-16 04:00 7.35 708 12100 (1973) 108 (1954) 1060 124 148 192 208 359 828 959 3460 5300
2019-11-16 03:00 7.36 710 12100 (1973) 108 (1954) 1060 124 148 192 208 359 828 959 3460 5300
2019-11-16 02:00 7.36 713 12100 (1973) 108 (1954) 1060 124 148 192 208 359 828 959 3460 5300
2019-11-16 01:00 7.37 718 12100 (1973) 108 (1954) 1060 124 148 192 208 359 828 959 3460 5300
2019-11-16 00:00 7.38 723 12100 (1973) 108 (1954) 1060 124 148 192 208 359 828 959 3460 5300
2019-11-15 23:00 7.39 726 12400 (1973) 99 (1961) 1000 111 139 179 189 318 766 912 2770 4630
2019-11-15 22:00 7.40 730 12400 (1973) 99 (1961) 1000 111 139 179 189 318 766 912 2770 4630
2019-11-15 21:00 7.41 735 12400 (1973) 99 (1961) 1000 111 139 179 189 318 766 912 2770 4630
2019-11-15 20:00 7.41 739 12400 (1973) 99 (1961) 1000 111 139 179 189 318 766 912 2770 4630
2019-11-15 19:00 7.42 741 12400 (1973) 99 (1961) 1000 111 139 179 189 318 766 912 2770 4630
2019-11-15 18:00 7.42 741 12400 (1973) 99 (1961) 1000 111 139 179 189 318 766 912 2770 4630
2019-11-15 17:00 7.42 743 12400 (1973) 99 (1961) 1000 111 139 179 189 318 766 912 2770 4630
2019-11-15 16:00 7.42 743 12400 (1973) 99 (1961) 1000 111 139 179 189 318 766 912 2770 4630
2019-11-15 15:00 7.42 743 12400 (1973) 99 (1961) 1000 111 139 179 189 318 766 912 2770 4630
2019-11-15 14:00 7.42 741 12400 (1973) 99 (1961) 1000 111 139 179 189 318 766 912 2770 4630
2019-11-15 13:00 7.41 738 12400 (1973) 99 (1961) 1000 111 139 179 189 318 766 912 2770 4630
2019-11-15 12:00 7.41 736 12400 (1973) 99 (1961) 1000 111 139 179 189 318 766 912 2770 4630
2019-11-15 11:00 7.41 735 12400 (1973) 99 (1961) 1000 111 139 179 189 318 766 912 2770 4630
2019-11-15 10:00 7.40 731 12400 (1973) 99 (1961) 1000 111 139 179 189 318 766 912 2770 4630
2019-11-15 09:00 7.39 727 12400 (1973) 99 (1961) 1000 111 139 179 189 318 766 912 2770 4630
2019-11-15 08:00 7.39 725 12400 (1973) 99 (1961) 1000 111 139 179 189 318 766 912 2770 4630
2019-11-15 07:00 7.38 721 12400 (1973) 99 (1961) 1000 111 139 179 189 318 766 912 2770 4630
2019-11-15 06:00 7.37 718 12400 (1973) 99 (1961) 1000 111 139 179 189 318 766 912 2770 4630
2019-11-15 05:00 7.36 713 12400 (1973) 99 (1961) 1000 111 139 179 189 318 766 912 2770 4630
2019-11-15 04:00 7.35 708 12400 (1973) 99 (1961) 1000 111 139 179 189 318 766 912 2770 4630
2019-11-15 03:00 7.34 703 12400 (1973) 99 (1961) 1000 111 139 179 189 318 766 912 2770 4630
2019-11-15 02:00 7.33 698 12400 (1973) 99 (1961) 1000 111 139 179 189 318 766 912 2770 4630
2019-11-15 01:00 7.32 694 12400 (1973) 99 (1961) 1000 111 139 179 189 318 766 912 2770 4630
2019-11-15 00:00 7.31 688 12400 (1973) 99 (1961) 1000 111 139 179 189 318 766 912 2770 4630
2019-11-14 23:00 7.30 683 9210 (1973) 80 (1928) 880 94 116 162 180 300 801 875 2540 4090
2019-11-14 22:00 7.29 678 9210 (1973) 80 (1928) 880 94 116 162 180 300 801 875 2540 4090
2019-11-14 21:00 7.28 675 9210 (1973) 80 (1928) 880 94 116 162 180 300 801 875 2540 4090
2019-11-14 20:00 7.26 664 9210 (1973) 80 (1928) 880 94 116 162 180 300 801 875 2540 4090
2019-11-14 19:00 7.26 663 9210 (1973) 80 (1928) 880 94 116 162 180 300 801 875 2540 4090
2019-11-14 18:00 7.25 659 9210 (1973) 80 (1928) 880 94 116 162 180 300 801 875 2540 4090
2019-11-14 16:45 7.25 659 9210 (1973) 80 (1928) 880 94 116 162 180 300 801 875 2540 4090
2019-11-14 16:00 7.25 661 9210 (1973) 80 (1928) 880 94 116 162 180 300 801 875 2540 4090
2019-11-14 15:00 7.26 664 9210 (1973) 80 (1928) 880 94 116 162 180 300 801 875 2540 4090
2019-11-14 14:00 7.27 670 9210 (1973) 80 (1928) 880 94 116 162 180 300 801 875 2540 4090
2019-11-14 13:00 7.29 679 9210 (1973) 80 (1928) 880 94 116 162 180 300 801 875 2540 4090
2019-11-14 12:00 7.31 690 9210 (1973) 80 (1928) 880 94 116 162 180 300 801 875 2540 4090
2019-11-14 11:00 7.34 705 9210 (1973) 80 (1928) 880 94 116 162 180 300 801 875 2540 4090
2019-11-14 10:00 7.38 721 9210 (1973) 80 (1928) 880 94 116 162 180 300 801 875 2540 4090
2019-11-14 09:00 7.41 737 9210 (1973) 80 (1928) 880 94 116 162 180 300 801 875 2540 4090
2019-11-14 08:00 7.44 754 9210 (1973) 80 (1928) 880 94 116 162 180 300 801 875 2540 4090
2019-11-14 07:00 7.48 773 9210 (1973) 80 (1928) 880 94 116 162 180 300 801 875 2540 4090
2019-11-14 06:00 7.51 788 9210 (1973) 80 (1928) 880 94 116 162 180 300 801 875 2540 4090
2019-11-14 05:00 7.55 805 9210 (1973) 80 (1928) 880 94 116 162 180 300 801 875 2540 4090
2019-11-14 03:45 7.58 823 9210 (1973) 80 (1928) 880 94 116 162 180 300 801 875 2540 4090
2019-11-14 03:00 7.60 835 9210 (1973) 80 (1928) 880 94 116 162 180 300 801 875 2540 4090
2019-11-14 02:00 7.63 849 9210 (1973) 80 (1928) 880 94 116 162 180 300 801 875 2540 4090
2019-11-14 01:00 7.65 858 9210 (1973) 80 (1928) 880 94 116 162 180 300 801 875 2540 4090
2019-11-14 00:00 7.67 867 9210 (1973) 80 (1928) 880 94 116 162 180 300 801 875 2540 4090

A total of 189 rows are displayed for years 1922 through 2017.

Trips for Maumee River (Ohio), Antwerp (04183500)

DateStartEndDistanceConditionDischargeHeightFishingDetails
Click for details2016-11-15 Jim Herber's House Antwerp Park Total trip distance: 7.8 miles7.8 Good 372 6.44 Poor NoneNone Fillmore, Brian
Schooley, Jason
Fillmore, Brian; Schooley, Jason
No notes for this trip<i>No notes for this trip</i> USGS Gauge Data:
Antwerp (04183500)
Discharge: 372
Height: 6.44
<b>USGS Gauge Data:</b></br />Antwerp (04183500)<br />Discharge: 372<br />Height: 6.44
Source: FillmoreSource: Fillmore
Click for details2016-07-26 Jim Herber's House Antwerp Park Total trip distance: 7.8 miles7.8 Good 187 5.80 Fair FWDFWD Denny, Dan
Fillmore, Brian
Wann, Dolly
Denny, Dan; Fillmore, Brian; Wann, Dolly
Great float with Mom and cousin Dan. Caught 4 Freshwater Drum (FWD) and lost the biggest flathead catfish I've ever hooked, 25+ lbs at least. Put in at N41.168650 W84.789264.Great float with Mom and cousin Dan. Caught 4 Freshwater Drum (FWD) and lost the biggest flathead catfish I've ever hooked, 25+ lbs at least. Put in at N41.168650 W84.789264. USGS Gauge Data:
Antwerp (04183500)
Discharge: 187
Height: 5.80
<b>USGS Gauge Data:</b></br />Antwerp (04183500)<br />Discharge: 187<br />Height: 5.80
Source: FillmoreSource: Fillmore

A total of 2 rows are displayed.

Trip Summary for Maumee River (Ohio), Antwerp (04183500)

Miles15.6
Trips2
People4
Dates2
Years1
Months2
Rows2
Sources1

Condition Descriptions

Fishing Conditions

Fish Species

Notes

Classic Trip List

The classic River Trips application is still available for use. It is updated with the new system using a data retrofit. It is no longer maintained. The original River Trips application is no longer updated (as of 1 Dec 2016) but can be checked for errors or for the condition of the data before it was converted to the new system.